Isle Royale Natl Park, Michigan
Current Conditions -  °F | °C
As of 11:00 AM on Thursday 27 Nov 2014 (Local Time) from CYQT Reporting Station
Few Clouds Few Clouds  
Wind Chill: -21°   Ceiling: Unl
Heat Index: -2°   Visibility: 20mi
Dew Point: -11°   Wind: 13mph
Humidity: 66%   Direction: 290°WNW
Pressure: 30.46"   Gusts: NA
Location:  48°N, 89°W
Report Text: CYQT 271600Z 29011KT 20SM FEW010 M19/M24 A3046 RMK SF1 TR SF OVR LK SPRIOR SLP336
Loading
Personal Weather Stations






























Interactive Weather Map New forecast layout! Learn more

10-Day Weather Forecast

Advertisements
Track Severe Weather on mobile